Time,TemperatureF,DewpointF,PressureIn,WindDirection,WindDirectionDegrees,WindSpeedMPH,WindSpeedGustMPH,Humidity,HourlyPrecipIn,Conditions,Clouds,dailyrainin,SoftwareType,DateUTC
2013-03-21 00:10:00,64.3,61.0,29.79,WNW,287,0.0,-999.0,88,-99.99,,,0.00,weatherlink.com 1.10,2013-03-21 04:10:00,
2013-03-21 00:25:00,63.8,60.0,29.79,WNW,288,0.0,-999.0,86,-99.99,,,0.00,weatherlink.com 1.10,2013-03-21 04:25:00,
2013-03-21 00:40:00,63.1,59.0,29.79,WNW,288,0.0,-999.0,87,-99.99,,,0.00,weatherlink.com 1.10,2013-03-21 04:40:00,
2013-03-21 00:55:00,62.4,59.0,29.78,WNW,288,0.0,-999.0,87,-99.99,,,0.00,weatherlink.com 1.10,2013-03-21 04:55:00,
2013-03-21 01:11:00,61.7,59.0,29.78,West,279,0.0,-999.0,89,-99.99,,,0.00,weatherlink.com 1.10,2013-03-21 05:11:00,
2013-03-21 01:26:00,61.1,58.0,29.79,West,276,0.0,-999.0,90,-99.99,,,0.00,weatherlink.com 1.10,2013-03-21 05:26:00,
2013-03-21 01:41:00,60.7,58.0,29.79,West,276,0.0,-999.0,90,-99.99,,,0.00,weatherlink.com 1.10,2013-03-21 05:41:00,
2013-03-21 01:56:00,60.3,58.0,29.79,NNW,343,0.0,-999.0,91,-99.99,,,0.00,weatherlink.com 1.10,2013-03-21 05:56:00,
2013-03-21 02:11:00,60.4,58.0,29.80,NW,311,0.0,-999.0,91,-99.99,,,0.00,weatherlink.com 1.10,2013-03-21 06:11:00,
2013-03-21 02:26:00,60.2,58.0,29.80,NW,306,0.0,-999.0,91,-99.99,,,0.00,weatherlink.com 1.10,2013-03-21 06:26:00,
2013-03-21 02:41:00,60.2,58.0,29.79,WNW,296,0.0,-999.0,92,-99.99,,,0.00,weatherlink.com 1.10,2013-03-21 06:41:00,
2013-03-21 02:56:00,60.5,58.0,29.79,WNW,296,0.0,-999.0,91,-99.99,,,0.00,weatherlink.com 1.10,2013-03-21 06:56:00,
2013-03-21 03:11:00,59.8,57.0,29.80,WNW,296,0.0,-999.0,91,-99.99,,,0.00,weatherlink.com 1.10,2013-03-21 07:11:00,
2013-03-21 03:26:00,59.9,57.0,29.80,NW,306,0.0,-999.0,91,-99.99,,,0.00,weatherlink.com 1.10,2013-03-21 07:26:00,
2013-03-21 03:41:00,60.4,58.0,29.80,WNW,300,0.0,-999.0,90,-99.99,,,0.00,weatherlink.com 1.10,2013-03-21 07:41:00,
2013-03-21 04:11:00,60.2,57.0,29.80,NW,311,0.0,-999.0,90,-99.99,,,0.00,weatherlink.com 1.10,2013-03-21 08:11:00,
2013-03-21 05:11:00,57.4,55.0,29.80,WNW,298,0.0,-999.0,93,-99.99,,,0.00,weatherlink.com 1.10,2013-03-21 09:11:00,
2013-03-21 05:26:00,56.8,55.0,29.80,NW,305,0.0,-999.0,94,-99.99,,,0.00,weatherlink.com 1.10,2013-03-21 09:26:00,
2013-03-21 05:41:00,56.2,55.0,29.81,NW,305,0.0,-999.0,94,-99.99,,,0.00,weatherlink.com 1.10,2013-03-21 09:41:00,
2013-03-21 05:56:00,55.6,54.0,29.82,WNW,297,0.0,-999.0,95,-99.99,,,0.00,weatherlink.com 1.10,2013-03-21 09:56:00,
2013-03-21 06:11:00,55.2,54.0,29.83,WNW,299,0.0,-999.0,95,-99.99,,,0.00,weatherlink.com 1.10,2013-03-21 10:11:00,
2013-03-21 06:26:00,54.8,53.0,29.83,WNW,300,0.0,-999.0,95,-99.99,,,0.00,weatherlink.com 1.10,2013-03-21 10:26:00,
2013-03-21 06:41:00,54.4,53.0,29.84,WNW,300,0.0,-999.0,95,-99.99,,,0.00,weatherlink.com 1.10,2013-03-21 10:41:00,
2013-03-21 06:56:00,54.1,53.0,29.85,WNW,300,0.0,-999.0,95,-99.99,,,0.00,weatherlink.com 1.10,2013-03-21 10:56:00,
2013-03-21 07:11:00,53.6,52.0,29.85,WNW,299,0.0,-999.0,95,-99.99,,,0.00,weatherlink.com 1.10,2013-03-21 11:11:00,
2013-03-21 07:26:00,53.2,52.0,29.85,WNW,300,0.0,-999.0,95,-99.99,,,0.00,weatherlink.com 1.10,2013-03-21 11:26:00,
2013-03-21 07:41:00,52.9,52.0,29.85,WNW,300,0.0,-999.0,95,-99.99,,,0.00,weatherlink.com 1.10,2013-03-21 11:41:00,
2013-03-21 07:56:00,53.1,52.0,29.86,WNW,298,0.0,-999.0,95,-99.99,,,0.00,weatherlink.com 1.10,2013-03-21 11:56:00,
2013-03-21 08:11:00,53.7,52.0,29.87,NW,310,0.0,-999.0,94,-99.99,,,0.00,weatherlink.com 1.10,2013-03-21 12:11:00,
2013-03-21 08:26:00,54.6,52.0,29.86,NW,314,2.0,-999.0,91,-99.99,,,0.00,weatherlink.com 1.10,2013-03-21 12:26:00,
2013-03-21 08:41:00,56.3,53.0,29.87,NW,311,0.0,-999.0,87,-99.99,,,0.00,weatherlink.com 1.10,2013-03-21 12:41:00,
2013-03-21 08:56:00,57.6,52.0,29.87,NNW,331,0.0,-999.0,81,-99.99,,,0.00,weatherlink.com 1.10,2013-03-21 12:56:00,
2013-03-21 09:11:00,58.7,50.0,29.88,North,11,6.0,-999.0,74,-99.99,,,0.00,weatherlink.com 1.10,2013-03-21 13:11:00,
2013-03-21 09:26:00,60.5,49.0,29.88,NNW,340,4.0,-999.0,67,-99.99,,,0.00,weatherlink.com 1.10,2013-03-21 13:26:00,
2013-03-21 09:41:00,61.9,49.0,29.89,NNW,345,0.0,-999.0,62,-99.99,,,0.00,weatherlink.com 1.10,2013-03-21 13:41:00,
2013-03-21 09:56:00,63.3,48.0,29.89,NW,321,0.0,-999.0,57,-99.99,,,0.00,weatherlink.com 1.10,2013-03-21 13:56:00,
2013-03-21 10:11:00,64.3,47.0,29.89,NNE,12,0.0,-999.0,53,-99.99,,,0.00,weatherlink.com 1.10,2013-03-21 14:11:00,
2013-03-21 10:26:00,64.9,48.0,29.90,North,355,2.0,-999.0,54,-99.99,,,0.00,weatherlink.com 1.10,2013-03-21 14:26:00,
2013-03-21 10:42:00,64.9,44.0,29.90,NNE,17,13.0,-999.0,47,-99.99,,,0.00,weatherlink.com 1.10,2013-03-21 14:42:00,
2013-03-21 10:57:00,64.8,43.0,29.90,NE,40,9.0,-999.0,46,-99.99,,,0.00,weatherlink.com 1.10,2013-03-21 14:57:00,
2013-03-21 11:12:00,67.0,43.0,29.90,NNW,330,3.0,-999.0,42,-99.99,,,0.00,weatherlink.com 1.10,2013-03-21 15:12:00,
2013-03-21 11:27:00,66.7,40.0,29.89,North,5,4.0,-999.0,38,-99.99,,,0.00,weatherlink.com 1.10,2013-03-21 15:27:00,
2013-03-21 11:42:00,66.8,42.0,29.89,NNW,347,0.0,-999.0,41,-99.99,,,0.00,weatherlink.com 1.10,2013-03-21 15:42:00,
2013-03-21 11:57:00,66.6,40.0,29.90,NNE,30,3.0,-999.0,38,-99.99,,,0.00,weatherlink.com 1.10,2013-03-21 15:57:00,
2013-03-21 12:12:00,67.1,42.0,29.90,NNE,13,5.0,-999.0,40,-99.99,,,0.00,weatherlink.com 1.10,2013-03-21 16:12:00,
2013-03-21 12:27:00,67.1,45.0,29.90,NNE,15,4.0,-999.0,45,-99.99,,,0.00,weatherlink.com 1.10,2013-03-21 16:27:00,
2013-03-21 12:42:00,67.9,42.0,29.90,North,360,4.0,-999.0,39,-99.99,,,0.00,weatherlink.com 1.10,2013-03-21 16:42:00,
2013-03-21 12:57:00,68.1,43.0,29.91,NNE,15,3.0,-999.0,40,-99.99,,,0.00,weatherlink.com 1.10,2013-03-21 16:57:00,
2013-03-21 13:12:00,67.5,45.0,29.90,NE,40,6.0,-999.0,45,-99.99,,,0.00,weatherlink.com 1.10,2013-03-21 17:12:00,
2013-03-21 13:29:00,67.1,42.0,29.89,NE,34,3.0,-999.0,41,-99.99,,,0.00,weatherlink.com 1.10,2013-03-21 17:29:00,
2013-03-21 13:42:00,67.8,44.0,29.89,North,5,7.0,-999.0,42,-99.99,,,0.00,weatherlink.com 1.10,2013-03-21 17:42:00,
2013-03-21 13:57:00,67.8,44.0,29.88,NE,42,7.0,-999.0,42,-99.99,,,0.00,weatherlink.com 1.10,2013-03-21 17:57:00,
2013-03-21 14:12:00,67.6,44.0,29.87,NNW,346,0.0,-999.0,43,-99.99,,,0.00,weatherlink.com 1.10,2013-03-21 18:12:00,
2013-03-21 14:27:00,68.1,44.0,29.86,NE,55,15.0,-999.0,42,-99.99,,,0.00,weatherlink.com 1.10,2013-03-21 18:27:00,
2013-03-21 14:42:00,67.4,45.0,29.86,NE,47,13.0,-999.0,45,-99.99,,,0.00,weatherlink.com 1.10,2013-03-21 18:42:00,
2013-03-21 14:57:00,67.9,45.0,29.85,NE,52,11.0,-999.0,44,-99.99,,,0.00,weatherlink.com 1.10,2013-03-21 18:57:00,
2013-03-21 15:12:00,66.9,45.0,29.85,East,90,5.0,-999.0,45,-99.99,,,0.00,weatherlink.com 1.10,2013-03-21 19:12:00,
2013-03-21 15:27:00,67.0,45.0,29.84,ENE,57,6.0,-999.0,46,-99.99,,,0.00,weatherlink.com 1.10,2013-03-21 19:27:00,
2013-03-21 15:42:00,67.9,44.0,29.83,ENE,73,6.0,-999.0,43,-99.99,,,0.00,weatherlink.com 1.10,2013-03-21 19:42:00,
2013-03-21 15:57:00,68.1,46.0,29.83,NE,40,0.0,-999.0,45,-99.99,,,0.00,weatherlink.com 1.10,2013-03-21 19:57:00,
2013-03-21 16:12:00,67.5,45.0,29.83,East,95,7.0,-999.0,45,-99.99,,,0.00,weatherlink.com 1.10,2013-03-21 20:12:00,
2013-03-21 16:27:00,66.7,45.0,29.83,ENE,77,5.0,-999.0,46,-99.99,,,0.00,weatherlink.com 1.10,2013-03-21 20:27:00,
2013-03-21 16:42:00,66.4,45.0,29.83,East,82,7.0,-999.0,47,-99.99,,,0.00,weatherlink.com 1.10,2013-03-21 20:42:00,
2013-03-21 16:57:00,66.1,46.0,29.83,ENE,77,5.0,-999.0,49,-99.99,,,0.00,weatherlink.com 1.10,2013-03-21 20:57:00,
2013-03-21 17:12:00,65.9,45.0,29.83,ENE,72,0.0,-999.0,47,-99.99,,,0.00,weatherlink.com 1.10,2013-03-21 21:12:00,
2013-03-21 17:27:00,66.2,47.0,29.83,ENE,69,0.0,-999.0,50,-99.99,,,0.00,weatherlink.com 1.10,2013-03-21 21:27:00,
2013-03-21 17:42:00,65.7,47.0,29.83,East,86,0.0,-999.0,51,-99.99,,,0.00,weatherlink.com 1.10,2013-03-21 21:42:00,
2013-03-21 17:57:00,65.5,46.0,29.83,NE,44,4.0,-999.0,50,-99.99,,,0.00,weatherlink.com 1.10,2013-03-21 21:57:00,
2013-03-21 18:12:00,64.3,47.0,29.83,NE,46,3.0,-999.0,53,-99.99,,,0.00,weatherlink.com 1.10,2013-03-21 22:12:00,
2013-03-21 18:27:00,63.7,47.0,29.84,ENE,59,3.0,-999.0,54,-99.99,,,0.00,weatherlink.com 1.10,2013-03-21 22:27:00,
2013-03-21 18:42:00,63.1,46.0,29.84,ENE,63,0.0,-999.0,54,-99.99,,,0.00,weatherlink.com 1.10,2013-03-21 22:42:00,
2013-03-21 18:57:00,62.1,47.0,29.85,ENE,63,0.0,-999.0,58,-99.99,,,0.00,weatherlink.com 1.10,2013-03-21 22:57:00,
2013-03-21 19:12:00,60.7,47.0,29.85,ENE,63,0.0,-999.0,61,-99.99,,,0.00,weatherlink.com 1.10,2013-03-21 23:12:00,
2013-03-21 19:42:00,56.6,47.0,29.85,ENE,63,0.0,-999.0,70,-99.99,,,0.00,weatherlink.com 1.10,2013-03-21 23:42:00,
2013-03-21 19:57:00,55.7,48.0,29.85,ENE,63,0.0,-999.0,75,-99.99,,,0.00,weatherlink.com 1.10,2013-03-21 23:57:00,
2013-03-21 20:12:00,55.3,48.0,29.85,ENE,63,0.0,-999.0,76,-99.99,,,0.00,weatherlink.com 1.10,2013-03-22 00:12:00,
2013-03-21 20:27:00,53.4,47.0,29.86,ENE,63,0.0,-999.0,79,-99.99,,,0.00,weatherlink.com 1.10,2013-03-22 00:27:00,
2013-03-21 20:42:00,53.8,47.0,29.86,ENE,63,0.0,-999.0,78,-99.99,,,0.00,weatherlink.com 1.10,2013-03-22 00:42:00,
2013-03-21 20:57:00,53.0,47.0,29.87,ENE,63,0.0,-999.0,79,-99.99,,,0.00,weatherlink.com 1.10,2013-03-22 00:57:00,
2013-03-21 21:12:00,52.5,47.0,29.86,ENE,63,0.0,-999.0,81,-99.99,,,0.00,weatherlink.com 1.10,2013-03-22 01:12:00,
2013-03-21 21:27:00,52.3,47.0,29.87,ENE,63,0.0,-999.0,81,-99.99,,,0.00,weatherlink.com 1.10,2013-03-22 01:27:00,
2013-03-21 21:42:00,51.6,47.0,29.88,ENE,63,0.0,-999.0,83,-99.99,,,0.00,weatherlink.com 1.10,2013-03-22 01:42:00,
2013-03-21 22:12:00,50.7,47.0,29.89,ENE,63,0.0,-999.0,87,-99.99,,,0.00,weatherlink.com 1.10,2013-03-22 02:12:00,
2013-03-21 22:27:00,49.9,47.0,29.89,ENE,63,0.0,-999.0,88,-99.99,,,0.00,weatherlink.com 1.10,2013-03-22 02:27:00,
2013-03-21 22:42:00,49.9,47.0,29.90,ENE,63,0.0,-999.0,88,-99.99,,,0.00,weatherlink.com 1.10,2013-03-22 02:42:00,
2013-03-21 22:57:00,50.4,47.0,29.89,ENE,63,0.0,-999.0,87,-99.99,,,0.00,weatherlink.com 1.10,2013-03-22 02:57:00,
2013-03-21 23:12:00,49.3,46.0,29.89,ENE,63,0.0,-999.0,89,-99.99,,,0.00,weatherlink.com 1.10,2013-03-22 03:12:00,
2013-03-21 23:27:00,48.6,46.0,29.89,ENE,63,0.0,-999.0,91,-99.99,,,0.00,weatherlink.com 1.10,2013-03-22 03:27:00,
2013-03-21 23:42:00,49.4,47.0,29.89,ENE,63,0.0,-999.0,90,-99.99,,,0.00,weatherlink.com 1.10,2013-03-22 03:42:00,
2013-03-21 23:57:00,49.6,47.0,29.89,ENE,63,0.0,-999.0,89,-99.99,,,0.00,weatherlink.com 1.10,2013-03-22 03:57:00,